createdAt,value
2022-12-12T00:01:46.861Z,98880.75
2022-12-12T00:04:13.728Z,98891.09
2022-12-12T00:06:40.306Z,98879.91
2022-12-12T00:09:06.892Z,98879.97
2022-12-12T00:11:33.607Z,98876.44
2022-12-12T00:14:00.214Z,98875.66
2022-12-12T00:16:26.868Z,98883.44
2022-12-12T00:18:53.959Z,98879.97
2022-12-12T00:21:24.097Z,98874.91
2022-12-12T00:23:51.238Z,98877.47
2022-12-12T00:26:24.571Z,98873.19
2022-12-12T00:28:52.171Z,98881.75
2022-12-12T00:31:19.200Z,98885.22
2022-12-12T00:33:48.126Z,98882.63
2022-12-12T00:36:19.675Z,98884.44
2022-12-12T00:38:46.420Z,98877.53
2022-12-12T00:41:13.087Z,98880.13
2022-12-12T00:43:39.795Z,98879.22
2022-12-12T00:46:06.826Z,98888.75
2022-12-12T00:48:33.571Z,98890.44
2022-12-12T00:51:09.611Z,98893.91
2022-12-12T00:53:38.292Z,98892.28
2022-12-12T00:56:05.429Z,98893.25
2022-12-12T00:58:32.861Z,98891.38
2022-12-12T01:01:06.600Z,98889.75
2022-12-12T01:03:34.402Z,98900.91
2022-12-12T01:06:00.972Z,98902.66
2022-12-12T01:08:28.292Z,98906.13
2022-12-12T01:10:55.493Z,98899.34
2022-12-12T01:13:22.167Z,98908.75
2022-12-12T01:15:49.008Z,98898.41
2022-12-12T01:18:16.754Z,98910.44
2022-12-12T01:20:43.554Z,98907.91
2022-12-12T01:23:11.062Z,98906.22
2022-12-12T01:25:37.681Z,98908.81
2022-12-12T01:28:05.012Z,98898.50
2022-12-12T01:30:32.498Z,98899.38
2022-12-12T01:32:59.124Z,98893.28
2022-12-12T01:35:26.357Z,98895.91
2022-12-12T01:37:54.342Z,98893.28
2022-12-12T01:40:24.808Z,98891.59
2022-12-12T01:42:52.452Z,98885.66
2022-12-12T01:45:56.539Z,98882.19
2022-12-12T01:48:29.220Z,98887.41
2022-12-12T01:50:59.644Z,98890.03
2022-12-12T01:53:29.727Z,98882.31
2022-12-12T01:55:57.533Z,98886.63
2022-12-12T01:58:25.830Z,98882.34
2022-12-12T02:00:52.524Z,98889.31
2022-12-12T02:03:19.175Z,98893.56
2022-12-12T02:05:55.221Z,98889.34
2022-12-12T02:08:23.372Z,98895.34
2022-12-12T02:10:50.593Z,98894.56
2022-12-12T02:13:21.709Z,98895.41
2022-12-12T02:15:54.354Z,98892.88
2022-12-12T02:18:28.252Z,98894.63
2022-12-12T02:21:18.404Z,98902.34
2022-12-12T02:23:53.646Z,98895.53
2022-12-12T02:26:49.201Z,98893.78
2022-12-12T02:29:38.963Z,98887.84
2022-12-12T02:32:10.071Z,98890.38
2022-12-12T02:35:00.761Z,98889.56
2022-12-12T02:37:43.768Z,98896.47
2022-12-12T02:40:30.924Z,98896.47
2022-12-12T02:43:13.084Z,98895.69
2022-12-12T02:45:51.348Z,98904.25
2022-12-12T02:48:28.289Z,98896.56
2022-12-12T02:50:59.051Z,98893.97
2022-12-12T02:53:25.687Z,98892.31
2022-12-12T02:56:07.382Z,98894.94
2022-12-12T02:58:37.846Z,98894.06
2022-12-12T03:01:13.216Z,98897.41
2022-12-12T03:04:37.453Z,98899.22
2022-12-12T03:07:44.393Z,98893.25
2022-12-12T03:10:29.300Z,98895.81
2022-12-12T03:13:08.569Z,98894.09
2022-12-12T03:15:44.732Z,98901.03
2022-12-12T03:18:18.995Z,98895.94
2022-12-12T03:20:59.287Z,98906.25
2022-12-12T03:23:32.489Z,98908.81
2022-12-12T03:26:27.633Z,98901.94
2022-12-12T03:29:17.672Z,98896.88
2022-12-12T03:31:53.327Z,98902.88
2022-12-12T03:34:26.131Z,98898.53
2022-12-12T03:37:08.028Z,98894.25
2022-12-12T03:39:42.160Z,98889.16
2022-12-12T03:42:15.469Z,98890.03
2022-12-12T03:44:57.843Z,98884.94
2022-12-12T03:47:35.532Z,98886.63
2022-12-12T03:50:16.208Z,98886.56
2022-12-12T03:52:50.201Z,98893.56
2022-12-12T03:55:19.705Z,98874.59
2022-12-12T03:57:54.188Z,98875.47
2022-12-12T04:00:20.929Z,98891.78
2022-12-12T04:02:56.306Z,98870.25
2022-12-12T04:05:40.120Z,98882.38
2022-12-12T04:08:15.370Z,98877.94
2022-12-12T04:11:10.736Z,98864.25
2022-12-12T04:13:55.630Z,98878.88
2022-12-12T04:16:29.975Z,98870.19
2022-12-12T04:19:01.071Z,98868.47
2022-12-12T04:21:59.495Z,98864.19
2022-12-12T04:24:35.434Z,98864.97
2022-12-12T04:27:08.384Z,98875.28
2022-12-12T04:29:46.857Z,98868.41
2022-12-12T04:32:16.850Z,98864.97
2022-12-12T04:34:50.122Z,98867.56
2022-12-12T04:37:22.877Z,98871.78
2022-12-12T04:39:52.845Z,98876.09
2022-12-12T04:42:23.097Z,98874.34
2022-12-12T04:44:54.407Z,98870.94
2022-12-12T04:47:22.620Z,98870.91
2022-12-12T04:49:51.608Z,98870.84
2022-12-12T04:52:21.054Z,98867.47
2022-12-12T04:54:50.556Z,98870.91
2022-12-12T04:57:25.267Z,98870.09
2022-12-12T04:59:52.252Z,98871.81
2022-12-12T05:02:30.832Z,98865.84
2022-12-12T05:05:02.321Z,98861.50
2022-12-12T05:07:41.322Z,98859.78
2022-12-12T05:10:14.847Z,98869.19
2022-12-12T05:12:50.540Z,98864.13
2022-12-12T05:15:19.772Z,98865.88
2022-12-12T05:17:49.401Z,98865.88
2022-12-12T05:20:16.178Z,98870.19
2022-12-12T05:22:42.755Z,98864.19
2022-12-12T05:25:10.544Z,98864.19
2022-12-12T05:27:37.301Z,98863.41
2022-12-12T05:30:04.618Z,98860.00
2022-12-12T05:32:31.207Z,98860.00
2022-12-12T05:34:57.776Z,98859.13
2022-12-12T05:37:24.346Z,98863.56
2022-12-12T05:39:50.893Z,98847.19
2022-12-12T05:42:17.478Z,98859.25
2022-12-12T05:44:44.189Z,98860.97
2022-12-12T05:47:10.780Z,98860.13
2022-12-12T05:49:37.368Z,98867.09
2022-12-12T05:52:04.090Z,98856.75
2022-12-12T05:54:30.870Z,98859.41
2022-12-12T05:56:57.560Z,98863.72
2022-12-12T05:59:24.179Z,98860.34
2022-12-12T06:01:50.728Z,98863.81
2022-12-12T06:04:17.611Z,98868.94
2022-12-12T06:06:44.312Z,98861.28
2022-12-12T06:09:10.869Z,98862.16
2022-12-12T06:11:37.438Z,98869.13
2022-12-12T06:14:04.585Z,98868.28
2022-12-12T06:16:31.192Z,98865.69
2022-12-12T06:18:57.819Z,98860.53
2022-12-12T06:21:24.613Z,98871.81
2022-12-12T06:23:51.514Z,98881.38
2022-12-12T06:26:18.680Z,98879.69
2022-12-12T06:28:45.532Z,98878.91
2022-12-12T06:31:12.889Z,98873.69
2022-12-12T06:33:40.919Z,98877.16
2022-12-12T06:36:09.118Z,98879.81
2022-12-12T06:38:36.248Z,98878.88
2022-12-12T06:41:14.767Z,98889.28
2022-12-12T06:43:42.204Z,98889.34
2022-12-12T06:46:14.331Z,98898.81
2022-12-12T06:48:40.968Z,98892.91
2022-12-12T06:51:09.026Z,98895.47
2022-12-12T06:53:36.517Z,98896.34
2022-12-12T06:56:21.847Z,98899.81
2022-12-12T06:58:48.913Z,98900.69
2022-12-12T07:01:19.302Z,98892.91
2022-12-12T07:03:46.585Z,98901.53
2022-12-12T07:06:13.627Z,98897.28
2022-12-12T07:08:40.206Z,98900.75
2022-12-12T07:11:19.135Z,98900.75
2022-12-12T07:13:45.791Z,98900.75
2022-12-12T07:16:12.531Z,98905.91
2022-12-12T07:18:39.650Z,98894.72
2022-12-12T07:21:07.899Z,98903.44
2022-12-12T07:23:34.954Z,98909.47
2022-12-12T07:26:11.971Z,98908.69
2022-12-12T07:28:38.545Z,98909.69
2022-12-12T07:31:09.895Z,98913.06
2022-12-12T07:33:43.746Z,98913.19
2022-12-12T07:36:12.012Z,98911.63
2022-12-12T07:38:38.744Z,98909.19
2022-12-12T07:41:08.560Z,98906.63
2022-12-12T07:43:41.469Z,98915.25
2022-12-12T07:46:14.677Z,98918.72
2022-12-12T07:48:41.456Z,98917.88
2022-12-12T07:51:08.037Z,98923.19
2022-12-12T07:53:34.644Z,98921.59
2022-12-12T07:56:05.089Z,98924.31
2022-12-12T07:58:31.753Z,98927.66
2022-12-12T08:00:58.434Z,98923.53
2022-12-12T08:03:25.467Z,98927.84
2022-12-12T08:05:52.085Z,98934.03
2022-12-12T08:08:18.904Z,98928.91
2022-12-12T08:10:45.508Z,98928.81
2022-12-12T08:13:12.079Z,98927.19
2022-12-12T08:15:38.844Z,98927.31
2022-12-12T08:18:05.480Z,98926.44
2022-12-12T08:20:32.123Z,98931.53
2022-12-12T08:23:00.621Z,98935.03
2022-12-12T08:25:27.210Z,98930.75
2022-12-12T08:27:53.812Z,98936.06
2022-12-12T08:30:20.459Z,98930.19
2022-12-12T08:32:47.015Z,98933.47
2022-12-12T08:35:14.026Z,98936.94
2022-12-12T08:37:40.908Z,98934.31
2022-12-12T08:40:08.104Z,98943.16
2022-12-12T08:42:34.722Z,98938.88
2022-12-12T08:45:01.280Z,98946.75
2022-12-12T08:47:27.880Z,98952.03
2022-12-12T08:49:54.490Z,98950.91
2022-12-12T08:52:21.156Z,98956.13
2022-12-12T08:54:47.878Z,98950.13
2022-12-12T08:57:14.542Z,98957.19
2022-12-12T08:59:41.136Z,98955.47
2022-12-12T09:02:12.013Z,98953.91
2022-12-12T09:04:38.857Z,98960.63
2022-12-12T09:07:08.683Z,98958.13
2022-12-12T09:09:35.472Z,98949.44
2022-12-12T09:12:02.280Z,98950.41
2022-12-12T09:14:28.835Z,98954.78
2022-12-12T09:16:55.576Z,98947.09
2022-12-12T09:19:22.205Z,98955.91
2022-12-12T09:21:48.800Z,98960.19
2022-12-12T09:24:15.373Z,98954.03
2022-12-12T09:26:42.361Z,98959.47
2022-12-12T09:29:10.755Z,98961.41
2022-12-12T09:31:37.483Z,98963.16
2022-12-12T09:34:04.095Z,98956.56
2022-12-12T09:36:30.774Z,98956.66
2022-12-12T09:38:57.439Z,98948.94
2022-12-12T09:41:30.722Z,98954.88
2022-12-12T09:44:08.426Z,98961.84
2022-12-12T09:46:37.793Z,98967.09
2022-12-12T09:49:25.741Z,98972.31
2022-12-12T09:51:53.149Z,98969.97
2022-12-12T09:54:22.799Z,98964.63
2022-12-12T09:57:08.027Z,98971.63
2022-12-12T09:59:56.381Z,98966.41
2022-12-12T10:02:51.042Z,98969.94
2022-12-12T10:05:32.477Z,98964.72
2022-12-12T10:08:13.983Z,98969.00
2022-12-12T10:10:44.335Z,98972.50
2022-12-12T10:13:17.059Z,98964.88
2022-12-12T10:15:51.740Z,98968.34
2022-12-12T10:18:30.593Z,98970.16
2022-12-12T10:21:01.553Z,98960.63
2022-12-12T10:23:40.178Z,98964.16
2022-12-12T10:26:24.411Z,98971.13
2022-12-12T10:28:59.113Z,98962.50
2022-12-12T10:31:25.851Z,98969.16
2022-12-12T10:33:55.316Z,98962.38
2022-12-12T10:36:48.086Z,98966.09
2022-12-12T10:39:25.210Z,98960.00
2022-12-12T10:41:51.691Z,98961.09
2022-12-12T10:44:22.293Z,98965.50
2022-12-12T10:47:00.462Z,98966.59
2022-12-12T10:49:27.238Z,98964.97
2022-12-12T10:51:55.955Z,98964.16
2022-12-12T10:54:26.422Z,98969.44
2022-12-12T10:57:24.848Z,98971.34
2022-12-12T10:59:54.678Z,98964.28
2022-12-12T11:02:29.114Z,98967.03
2022-12-12T11:05:06.586Z,98959.47
2022-12-12T11:07:39.454Z,98967.44
2022-12-12T11:10:35.198Z,98962.34
2022-12-12T11:13:22.005Z,98966.88
2022-12-12T11:16:13.124Z,98968.72
2022-12-12T11:18:41.490Z,98969.69
2022-12-12T11:21:11.679Z,98970.03
2022-12-12T11:23:41.684Z,98970.84
2022-12-12T11:26:14.135Z,98972.28
2022-12-12T11:28:42.226Z,98969.63
2022-12-12T11:31:14.353Z,98973.06
2022-12-12T11:33:48.420Z,98962.72
2022-12-12T11:36:23.308Z,98969.53
2022-12-12T11:38:54.348Z,98971.16
2022-12-12T11:41:21.023Z,98972.09
2022-12-12T11:43:47.553Z,98971.22
2022-12-12T11:46:14.121Z,98969.56
2022-12-12T11:48:46.791Z,98974.13
2022-12-12T11:51:29.967Z,98972.47
2022-12-12T11:53:56.850Z,98982.16
2022-12-12T11:56:37.906Z,98983.81
2022-12-12T11:59:39.623Z,98988.84
2022-12-12T12:02:41.371Z,98993.25
2022-12-12T12:05:17.082Z,98985.69
2022-12-12T12:07:52.698Z,98987.44
2022-12-12T12:10:47.745Z,98994.44
2022-12-12T12:13:51.913Z,98992.59
2022-12-12T12:16:36.174Z,98993.78
2022-12-12T12:19:29.813Z,98996.69
2022-12-12T12:22:03.900Z,98999.09
2022-12-12T12:25:06.435Z,98998.31
2022-12-12T12:27:50.833Z,98994.00
2022-12-12T12:30:24.175Z,99001.97
2022-12-12T12:33:09.130Z,99003.28
2022-12-12T12:35:54.380Z,99000.84
2022-12-12T12:38:37.331Z,99003.03
2022-12-12T12:41:14.958Z,99005.50
2022-12-12T12:43:53.923Z,99009.88
2022-12-12T12:46:35.031Z,98989.19
2022-12-12T12:49:15.604Z,99003.66
2022-12-12T12:51:55.939Z,98999.38
2022-12-12T12:54:26.076Z,98997.69
2022-12-12T12:57:08.008Z,99011.34
2022-12-12T12:59:38.787Z,99005.16
2022-12-12T13:02:26.721Z,99001.06
2022-12-12T13:05:14.980Z,99005.44
2022-12-12T13:08:16.011Z,99014.66
2022-12-12T13:10:47.713Z,99005.13
2022-12-12T13:13:43.253Z,99013.09
2022-12-12T13:16:15.866Z,99012.94
2022-12-12T13:18:46.115Z,99016.41
2022-12-12T13:21:39.269Z,99021.44
2022-12-12T13:24:29.511Z,99017.31
2022-12-12T13:27:31.824Z,99033.78
2022-12-12T13:30:23.099Z,99034.44
2022-12-12T13:33:14.224Z,99036.78
2022-12-12T13:35:46.166Z,99043.47
2022-12-12T13:38:33.490Z,99045.44
2022-12-12T13:41:02.809Z,99048.75
2022-12-12T13:43:38.593Z,99046.84
2022-12-12T13:46:23.578Z,99050.47
2022-12-12T13:49:27.459Z,99058.84
2022-12-12T13:52:24.050Z,99054.28
2022-12-12T13:54:54.631Z,99061.22
2022-12-12T13:57:24.510Z,99062.16
2022-12-12T14:00:19.369Z,99072.25
2022-12-12T14:02:59.511Z,99075.56
2022-12-12T14:05:41.380Z,99071.94
2022-12-12T14:08:11.073Z,99072.66
2022-12-12T14:10:54.193Z,99076.00
2022-12-12T14:13:26.927Z,99079.31
2022-12-12T14:16:07.938Z,99080.94
2022-12-12T14:18:59.627Z,99093.78
2022-12-12T14:21:43.516Z,99089.41
2022-12-12T14:24:36.186Z,99089.31
2022-12-12T14:27:07.501Z,99087.50
2022-12-12T14:29:42.082Z,99085.66
2022-12-12T14:32:11.648Z,99087.31
2022-12-12T14:35:16.006Z,99090.69
2022-12-12T14:38:04.475Z,99077.59
2022-12-12T14:40:39.351Z,99087.81
2022-12-12T14:43:25.616Z,99074.78
2022-12-12T14:45:57.994Z,99083.28
2022-12-12T14:48:32.521Z,99084.97
2022-12-12T14:51:28.962Z,99084.94
2022-12-12T14:53:57.098Z,99088.41
2022-12-12T14:56:31.217Z,99093.59
2022-12-12T14:59:13.326Z,99097.97
2022-12-12T15:01:46.186Z,99109.28
2022-12-12T15:04:21.372Z,99112.00
2022-12-12T15:07:13.472Z,99115.50
2022-12-12T15:09:40.549Z,99117.28
2022-12-12T15:12:10.266Z,99119.94
2022-12-12T15:14:57.559Z,99122.50
2022-12-12T15:17:44.038Z,99118.28
2022-12-12T15:20:21.696Z,99132.94
2022-12-12T15:23:05.493Z,99129.47
2022-12-12T15:25:36.039Z,99136.44
2022-12-12T15:28:03.183Z,99145.94
2022-12-12T15:30:42.718Z,99142.47
2022-12-12T15:33:21.507Z,99138.06
2022-12-12T15:35:50.522Z,99144.94
2022-12-12T15:38:17.085Z,99145.84
2022-12-12T15:40:47.569Z,99132.81
2022-12-12T15:43:17.409Z,99133.69
2022-12-12T15:45:52.030Z,99142.25
2022-12-12T15:48:19.728Z,99141.22
2022-12-12T15:50:46.248Z,99144.53
2022-12-12T15:53:16.463Z,99143.59
2022-12-12T15:56:13.811Z,99150.31
2022-12-12T15:58:46.778Z,99145.81
2022-12-12T16:01:20.269Z,99153.53
2022-12-12T16:03:55.636Z,99151.63
2022-12-12T16:06:26.786Z,99149.81
2022-12-12T16:09:01.004Z,99147.19
2022-12-12T16:11:41.672Z,99137.59
2022-12-12T16:14:37.099Z,99157.31
2022-12-12T16:17:25.822Z,99162.34
2022-12-12T16:20:03.205Z,99166.50
2022-12-12T16:22:39.875Z,99162.00
2022-12-12T16:25:10.992Z,99176.63
2022-12-12T16:27:37.683Z,99176.56
2022-12-12T16:30:05.443Z,99180.88
2022-12-12T16:32:32.040Z,99180.88
2022-12-12T16:34:58.622Z,99186.09
2022-12-12T16:37:25.208Z,99198.19
2022-12-12T16:39:51.832Z,99194.66
2022-12-12T16:42:20.828Z,99196.38
2022-12-12T16:44:47.665Z,99194.66
2022-12-12T16:47:20.801Z,99198.06
2022-12-12T16:49:47.710Z,99198.84
2022-12-12T16:52:16.088Z,99202.22
2022-12-12T16:54:46.896Z,99185.72
2022-12-12T16:57:17.889Z,99196.91
2022-12-12T16:59:44.539Z,99201.22
2022-12-12T17:02:23.303Z,99212.38
2022-12-12T17:04:50.726Z,99206.34
2022-12-12T17:07:17.439Z,99205.47
2022-12-12T17:09:44.246Z,99202.06
2022-12-12T17:12:13.068Z,99214.09
2022-12-12T17:14:39.907Z,99210.53
2022-12-12T17:17:06.779Z,99222.50
2022-12-12T17:19:33.427Z,99219.78
2022-12-12T17:22:00.700Z,99225.69
2022-12-12T17:24:27.859Z,99227.13
2022-12-12T17:26:54.544Z,99220.00
2022-12-12T17:29:21.461Z,99230.88
2022-12-12T17:31:48.197Z,99229.84
2022-12-12T17:34:14.789Z,99240.81
2022-12-12T17:36:41.393Z,99247.50
2022-12-12T17:39:08.025Z,99249.00
2022-12-12T17:41:34.596Z,99250.63
2022-12-12T17:44:01.297Z,99256.44
2022-12-12T17:46:30.034Z,99253.75
2022-12-12T17:48:58.432Z,99251.91
2022-12-12T17:51:25.879Z,99263.00
2022-12-12T17:53:52.908Z,99267.25
2022-12-12T17:56:22.735Z,99266.31
2022-12-12T17:58:49.848Z,99265.44
2022-12-12T18:01:18.256Z,99268.94
2022-12-12T18:03:45.730Z,99278.34
2022-12-12T18:06:13.828Z,99279.25
2022-12-12T18:08:41.345Z,99281.00
2022-12-12T18:11:18.535Z,99287.19
2022-12-12T18:13:45.828Z,99277.72
2022-12-12T18:16:13.224Z,99287.25
2022-12-12T18:18:40.773Z,99291.63
2022-12-12T18:21:12.928Z,99286.59
2022-12-12T18:23:43.005Z,99287.50
2022-12-12T18:26:18.570Z,99290.91
2022-12-12T18:29:00.642Z,99288.41
2022-12-12T18:31:28.342Z,99286.66
2022-12-12T18:33:55.246Z,99294.38
2022-12-12T18:36:25.256Z,99291.81
2022-12-12T18:38:53.527Z,99294.41
2022-12-12T18:41:20.167Z,99295.19
2022-12-12T18:43:46.838Z,99313.31
2022-12-12T18:46:16.990Z,99305.56
2022-12-12T18:48:45.398Z,99304.72
2022-12-12T18:51:18.898Z,99306.47
2022-12-12T18:53:46.771Z,99306.47
2022-12-12T18:56:23.995Z,99316.72
2022-12-12T18:58:53.162Z,99316.78
2022-12-12T19:01:25.881Z,99321.00
2022-12-12T19:03:54.098Z,99317.50
2022-12-12T19:06:24.802Z,99322.66
2022-12-12T19:08:51.983Z,99331.22
2022-12-12T19:11:19.921Z,99332.91
2022-12-12T19:13:47.337Z,99330.28
2022-12-12T19:16:17.001Z,99330.19
2022-12-12T19:18:44.197Z,99326.78
2022-12-12T19:21:17.247Z,99337.06
2022-12-12T19:23:47.705Z,99342.22
2022-12-12T19:26:27.140Z,99331.91
2022-12-12T19:28:59.382Z,99339.63
2022-12-12T19:31:26.341Z,99343.09
2022-12-12T19:33:54.208Z,99348.19
2022-12-12T19:36:24.610Z,99338.72
2022-12-12T19:38:52.254Z,99355.88
2022-12-12T19:41:21.930Z,99348.13
2022-12-12T19:43:50.263Z,99357.59
2022-12-12T19:46:20.122Z,99362.75
2022-12-12T19:48:47.940Z,99361.94
2022-12-12T19:51:17.451Z,99363.56
2022-12-12T19:53:46.659Z,99371.28
2022-12-12T19:56:23.652Z,99370.50
2022-12-12T19:58:50.576Z,99371.28
2022-12-12T20:01:19.911Z,99380.81
2022-12-12T20:03:51.193Z,99375.66
2022-12-12T20:06:18.836Z,99382.63
2022-12-12T20:08:46.155Z,99388.63
2022-12-12T20:11:15.418Z,99383.47
2022-12-12T20:13:43.181Z,99384.25
2022-12-12T20:16:13.003Z,99389.41
2022-12-12T20:18:41.624Z,99390.44
2022-12-12T20:21:20.464Z,99389.53
2022-12-12T20:23:57.433Z,99391.28
2022-12-12T20:26:26.568Z,99381.81
2022-12-12T20:28:55.058Z,99386.06
2022-12-12T20:31:25.295Z,99392.13
2022-12-12T20:33:54.958Z,99389.53
2022-12-12T20:36:24.526Z,99381.75
2022-12-12T20:38:52.155Z,99382.63
2022-12-12T20:41:24.468Z,99396.38
2022-12-12T20:43:54.443Z,99398.16
2022-12-12T20:46:32.909Z,99391.19
2022-12-12T20:49:01.975Z,99404.09
2022-12-12T20:51:54.775Z,99414.41
2022-12-12T20:54:19.977Z,99421.38
2022-12-12T20:56:46.815Z,99420.44
2022-12-12T20:59:14.705Z,99413.53
2022-12-12T21:01:41.668Z,99422.94
2022-12-12T21:04:09.619Z,99426.41
2022-12-12T21:06:41.110Z,99429.00
2022-12-12T21:09:10.610Z,99431.56
2022-12-12T21:11:38.625Z,99440.09
2022-12-12T21:14:06.717Z,99440.09
2022-12-12T21:16:37.084Z,99450.19
2022-12-12T21:19:09.908Z,99456.19
2022-12-12T21:21:37.955Z,99447.50
2022-12-12T21:24:05.213Z,99451.81
2022-12-12T21:26:32.981Z,99455.03
2022-12-12T21:29:01.893Z,99449.84
2022-12-12T21:31:35.985Z,99445.41
2022-12-12T21:34:03.436Z,99451.97
2022-12-12T21:36:31.520Z,99448.38
2022-12-12T21:38:59.965Z,99444.78
2022-12-12T21:41:27.180Z,99444.56
2022-12-12T21:43:55.739Z,99449.56
2022-12-12T21:46:25.478Z,99445.31
2022-12-12T21:49:11.581Z,99444.28
2022-12-12T21:51:41.886Z,99447.75
2022-12-12T21:54:10.470Z,99446.84
2022-12-12T21:56:37.483Z,99455.34
2022-12-12T21:59:04.050Z,99453.59
2022-12-12T22:01:32.455Z,99457.84
2022-12-12T22:04:00.392Z,99451.72
2022-12-12T22:06:32.526Z,99462.81
2022-12-12T22:09:01.244Z,99462.72
2022-12-12T22:11:40.037Z,99453.19
2022-12-12T22:14:13.644Z,99443.69
2022-12-12T22:16:40.276Z,99452.31
2022-12-12T22:19:11.066Z,99455.75
2022-12-12T22:21:37.706Z,99464.31
2022-12-12T22:24:04.785Z,99466.81
2022-12-12T22:26:41.194Z,99456.59
2022-12-12T22:29:11.713Z,99460.91
2022-12-12T22:31:39.787Z,99454.84
2022-12-12T22:34:12.722Z,99458.22
2022-12-12T22:36:40.322Z,99467.66
2022-12-12T22:39:08.799Z,99472.72
2022-12-12T22:41:35.382Z,99472.81
2022-12-12T22:44:04.025Z,99465.06
2022-12-12T22:46:30.845Z,99473.66
2022-12-12T22:49:00.322Z,99466.69
2022-12-12T22:51:29.829Z,99479.56
2022-12-12T22:53:58.370Z,99477.88
2022-12-12T22:56:25.544Z,99473.56
2022-12-12T22:58:52.187Z,99476.13
2022-12-12T23:01:20.787Z,99472.72
2022-12-12T23:03:48.153Z,99478.72
2022-12-12T23:06:19.276Z,99480.47
2022-12-12T23:08:51.743Z,99472.81
2022-12-12T23:11:20.274Z,99475.38
2022-12-12T23:13:47.251Z,99471.06
2022-12-12T23:16:19.556Z,99477.00
2022-12-12T23:18:48.103Z,99471.84
2022-12-12T23:21:17.702Z,99474.34
2022-12-12T23:23:45.811Z,99472.72
2022-12-12T23:26:15.270Z,99487.38
2022-12-12T23:28:43.104Z,99490.84
2022-12-12T23:31:12.221Z,99484.78
2022-12-12T23:33:39.338Z,99472.72
2022-12-12T23:36:11.079Z,99483.03
2022-12-12T23:38:38.228Z,99477.88
2022-12-12T23:41:06.893Z,99475.25
2022-12-12T23:43:34.166Z,99489.09
2022-12-12T23:46:03.260Z,99486.56
2022-12-12T23:48:30.985Z,99488.19
2022-12-12T23:50:58.351Z,99490.84
2022-12-12T23:53:26.450Z,99495.09
2022-12-12T23:55:53.627Z,99489.09
2022-12-12T23:58:20.174Z,99493.50
